Time;durP1;ratioP1;P1;durP2;ratioP2;P2;SDS_P1;SDS_P2;PMS_P1;PMS_P2;Temp;Humidity;BMP_temperature;BMP_pressure;BME280_temperature;BME280_humidity;BME280_pressure;Samples;Min_cycle;Max_cycle;Signal;HPM_P1;HPM_P2
2022/12/25 00:04:39;;;;;;;0.80;0.80;;;;;;;8.29;65.98;100874.28;18417276;32;20169;-60
2022/12/25 00:14:42;;;;;;;0.85;0.85;;;;;;;8.33;65.72;100889.06;18416780;32;20111;-59
2022/12/25 00:24:48;;;;;;;0.80;0.80;;;;;;;8.29;65.53;100890.75;18416482;32;20168;-60
2022/12/25 00:34:51;;;;;;;0.70;0.70;;;;;;;8.36;65.09;100907.34;18417034;32;20144;-59
2022/12/25 00:44:56;;;;;;;0.98;0.75;;;;;;;8.29;64.82;100918.50;18415397;32;20452;-59
2022/12/25 00:54:59;;;;;;;0.70;0.70;;;;;;;7.88;66.29;100925.66;18417992;32;20202;-59
2022/12/25 01:05:05;;;;;;;0.70;0.70;;;;;;;8.01;66.07;100925.84;18424437;32;20760;-59
2022/12/25 01:15:10;;;;;;;1.20;1.17;;;;;;;7.86;66.76;100945.50;18423761;32;20081;-59
2022/12/25 01:25:14;;;;;;;4.25;1.75;;;;;;;7.97;66.54;100950.91;18423502;32;20120;-59
2022/12/25 01:35:17;;;;;;;0.80;0.80;;;;;;;7.65;67.73;100953.81;18422883;32;20502;-59
2022/12/25 01:45:44;;;;;;;0.60;0.60;;;;;;;7.94;66.66;100968.19;18422672;32;20165;-59
2022/12/25 01:55:50;;;;;;;0.75;0.75;;;;;;;7.82;66.70;100961.03;18422143;32;20145;-60
2022/12/25 02:05:55;;;;;;;0.95;0.95;;;;;;;7.72;66.90;100970.41;18421375;32;20089;-60
2022/12/25 02:16:03;;;;;;;3.10;1.85;;;;;;;7.69;66.67;100978.16;18421484;32;20089;-60
2022/12/25 02:26:15;;;;;;;0.70;0.70;;;;;;;7.49;68.67;100963.91;18421081;32;20085;-59
2022/12/25 02:36:23;;;;;;;1.35;1.25;;;;;;;7.73;66.67;100982.53;18420858;32;20482;-59
2022/12/25 03:07:13;;;;;;;1.55;1.20;;;;;;;7.54;66.53;101002.97;18419730;32;20635;-59
2022/12/25 03:17:18;;;;;;;0.70;0.70;;;;;;;7.58;66.95;101016.91;18418231;32;20178;-59
2022/12/25 03:27:21;;;;;;;0.70;0.70;;;;;;;7.52;67.15;101015.06;18420098;32;20117;-59
2022/12/25 04:39:59;;;;;;;0.75;0.75;;;;;;;6.57;66.92;101056.22;18545552;32;20120;-59
2022/12/25 04:50:02;;;;;;;0.85;0.85;;;;;;;6.74;65.99;101054.91;18518539;32;20531;-59
2022/12/25 05:00:08;;;;;;;0.80;0.80;;;;;;;6.42;66.54;101056.72;18518894;31;20399;-59
2022/12/25 05:10:12;;;;;;;2.05;1.95;;;;;;;6.60;66.24;101074.44;18685479;31;20143;-59
2022/12/25 05:20:16;;;;;;;0.65;0.65;;;;;;;6.46;66.06;101074.97;18684897;31;20123;-59
2022/12/25 05:30:19;;;;;;;0.60;0.60;;;;;;;5.24;70.03;101087.97;18684234;31;20490;-60
2022/12/25 05:40:24;;;;;;;1.55;1.45;;;;;;;5.54;68.33;101100.06;18684958;31;20095;-59
2022/12/25 05:50:27;;;;;;;2.40;2.22;;;;;;;5.74;67.39;101110.12;18595805;31;20112;-59
2022/12/25 06:00:32;;;;;;;4.62;4.43;;;;;;;5.74;67.94;101112.72;18422347;32;20707;-59
2022/12/25 06:10:36;;;;;;;1.15;1.15;;;;;;;5.63;67.11;101135.72;18414361;32;20162;-59
2022/12/25 06:20:41;;;;;;;1.00;1.00;;;;;;;5.61;66.80;101127.03;18357333;32;20093;-59
2022/12/25 06:30:44;;;;;;;0.68;0.68;;;;;;;5.52;66.30;101127.63;18360187;32;20093;-59
2022/12/25 06:40:49;;;;;;;0.70;0.70;;;;;;;5.29;66.12;101135.56;18372484;32;20094;-59
2022/12/25 06:50:52;;;;;;;0.70;0.70;;;;;;;5.31;65.18;101130.44;18358636;32;20139;-59
2022/12/25 07:00:58;;;;;;;1.65;1.55;;;;;;;5.07;66.29;101146.94;18403641;32;20397;-59
2022/12/25 07:11:01;;;;;;;2.25;2.15;;;;;;;5.26;65.74;101154.50;18359948;32;20495;-59
2022/12/25 07:21:11;;;;;;;0.90;0.90;;;;;;;5.43;66.03;101185.19;18355794;32;20107;-59
2022/12/25 07:31:16;;;;;;;1.30;1.30;;;;;;;5.74;66.28;101198.22;18353555;32;20171;-59
2022/12/25 07:41:21;;;;;;;1.65;1.55;;;;;;;6.15;64.85;101203.78;18357528;32;20505;-59
2022/12/25 07:51:24;;;;;;;1.27;1.17;;;;;;;6.41;64.90;101200.19;18356997;31;20106;-59
2022/12/25 08:01:29;;;;;;;2.47;2.35;;;;;;;6.70;64.05;101220.88;18356470;32;20115;-59
2022/12/25 08:11:32;;;;;;;0.70;0.70;;;;;;;6.99;64.03;101226.81;18356061;32;20134;-59
2022/12/25 08:21:37;;;;;;;1.20;1.15;;;;;;;7.22;66.53;101242.09;18356057;32;20121;-59
2022/12/25 08:31:42;;;;;;;0.70;0.70;;;;;;;7.94;69.03;101254.16;18356437;32;20144;-59
2022/12/25 08:41:50;;;;;;;2.30;2.10;;;;;;;8.72;69.05;101243.66;18355059;32;20645;-59
2022/12/25 08:51:53;;;;;;;0.60;0.60;;;;;;;8.77;69.01;101260.22;18354103;32;20459;-59
2022/12/25 09:01:57;;;;;;;0.80;0.80;;;;;;;9.72;66.00;101251.41;18354067;32;20484;-59
2022/12/25 09:12:00;;;;;;;0.95;0.95;;;;;;;9.72;65.79;101261.84;18353421;32;20094;-59
2022/12/25 09:22:05;;;;;;;1.80;1.70;;;;;;;10.24;64.95;101260.81;18361232;32;20119;-59
2022/12/25 09:32:08;;;;;;;1.23;1.12;;;;;;;10.68;64.69;101247.47;18362513;32;20108;-59
2022/12/25 09:42:16;;;;;;;1.80;0.93;;;;;;;10.94;62.97;101259.94;18362277;32;20116;-59
2022/12/25 09:52:22;;;;;;;0.95;0.95;;;;;;;11.16;62.91;101264.50;18361470;32;20098;-59
2022/12/25 10:03:05;;;;;;;0.45;0.45;;;;;;;11.28;62.90;101259.38;18361591;32;20663;-59
2022/12/25 10:13:21;;;;;;;0.77;0.77;;;;;;;11.55;62.61;101251.72;18422092;32;20116;-59
2022/12/25 10:23:27;;;;;;;0.90;0.90;;;;;;;11.71;61.39;101253.59;18424382;32;20140;-59
2022/12/25 10:33:31;;;;;;;0.62;0.62;;;;;;;11.79;61.73;101259.75;18423969;32;20139;-59
2022/12/25 10:43:38;;;;;;;0.60;0.60;;;;;;;11.57;61.28;101250.00;18404918;32;20510;-59
2022/12/25 10:53:43;;;;;;;0.95;0.95;;;;;;;12.07;60.68;101236.41;18359473;32;20121;-59
2022/12/25 11:03:51;;;;;;;0.95;0.82;;;;;;;12.03;60.52;101249.47;18359322;32;20717;-60
2022/12/25 11:13:57;;;;;;;0.70;0.70;;;;;;;12.66;58.54;101242.72;18359995;32;20348;-59
2022/12/25 11:24:02;;;;;;;1.58;0.90;;;;;;;12.85;57.66;101226.16;18358432;32;20149;-59
2022/12/25 11:34:10;;;;;;;0.50;0.50;;;;;;;12.98;57.59;101213.06;18378179;31;203061;-59
2022/12/25 11:44:25;;;;;;;0.88;0.88;;;;;;;13.05;57.59;101206.97;18356759;32;20437;-59
2022/12/25 11:54:33;;;;;;;1.15;0.98;;;;;;;13.14;57.12;101196.47;18356820;32;20107;-59
2022/12/25 12:04:39;;;;;;;0.37;0.37;;;;;;;13.64;56.55;101198.22;18357630;32;20108;-60
2022/12/25 12:14:53;;;;;;;1.17;0.70;;;;;;;13.29;57.08;101190.34;18356129;32;20101;-59
2022/12/25 12:25:01;;;;;;;0.75;0.75;;;;;;;13.55;56.55;101183.34;18355833;32;20116;-59
2022/12/25 12:35:17;;;;;;;0.60;0.60;;;;;;;13.94;55.78;101192.03;18355023;32;20091;-59
2022/12/25 12:45:25;;;;;;;3.22;2.08;;;;;;;13.68;56.52;101189.47;18355881;32;20110;-59
2022/12/25 12:55:32;;;;;;;0.40;0.40;;;;;;;14.17;56.27;101185.78;18361417;31;20112;-59
2022/12/25 13:05:39;;;;;;;0.57;0.57;;;;;;;14.26;56.20;101196.25;18363594;32;20396;-59
2022/12/25 13:15:46;;;;;;;0.70;0.70;;;;;;;14.34;56.13;101197.97;18362868;32;20445;-59
2022/12/25 13:25:52;;;;;;;0.73;0.73;;;;;;;14.25;56.17;101199.75;18362802;32;20085;-59
2022/12/25 13:35:56;;;;;;;0.88;0.88;;;;;;;14.18;56.80;101195.41;18362562;32;20179;-59
2022/12/25 13:45:59;;;;;;;1.08;0.77;;;;;;;14.11;56.85;101193.69;18362084;32;20093;-59
2022/12/25 13:56:04;;;;;;;0.40;0.40;;;;;;;14.00;57.55;101188.50;18361690;32;20123;-59
2022/12/25 14:06:17;;;;;;;0.52;0.50;;;;;;;13.84;57.96;101199.03;18360618;32;20515;-59
2022/12/25 14:16:22;;;;;;;0.45;0.45;;;;;;;13.67;58.42;101196.47;18361037;32;20127;-59
2022/12/25 14:26:28;;;;;;;0.52;0.52;;;;;;;13.45;59.22;101195.63;18360854;32;20486;-59
2022/12/25 14:36:33;;;;;;;1.73;1.05;;;;;;;13.18;59.48;101208.75;18359946;32;20148;-60
2022/12/25 14:46:36;;;;;;;0.47;0.47;;;;;;;12.91;59.73;101227.94;18359598;32;20432;-59
2022/12/25 14:56:46;;;;;;;0.37;0.37;;;;;;;12.58;60.84;101214.75;18358678;32;20187;-59
2022/12/25 15:06:55;;;;;;;0.60;0.60;;;;;;;12.52;61.41;101222.63;18359008;32;20097;-60
2022/12/25 15:17:00;;;;;;;0.40;0.40;;;;;;;12.51;61.29;101219.97;18358516;32;20089;-59
2022/12/25 15:27:04;;;;;;;0.52;0.52;;;;;;;12.34;61.65;101223.41;18358226;32;20085;-59
2022/12/25 15:37:08;;;;;;;0.70;0.70;;;;;;;12.35;61.97;101219.94;18357870;32;20097;-60
2022/12/25 15:47:12;;;;;;;0.60;0.60;;;;;;;12.39;61.93;101237.41;18357202;32;20556;-60
2022/12/25 15:57:19;;;;;;;0.40;0.40;;;;;;;12.42;62.03;101240.03;18356885;32;20090;-59
2022/12/25 16:07:23;;;;;;;0.73;0.73;;;;;;;12.51;62.02;101227.84;18356497;32;20107;-59
2022/12/25 16:17:28;;;;;;;1.95;0.77;;;;;;;12.65;61.52;101235.75;18356167;32;20098;-59
2022/12/25 16:27:31;;;;;;;1.27;0.90;;;;;;;12.88;60.32;101231.41;18355067;32;20097;-59
2022/12/25 16:37:36;;;;;;;1.30;1.00;;;;;;;12.88;60.10;101234.03;18354782;32;20433;-59
2022/12/25 16:47:39;;;;;;;2.78;1.02;;;;;;;13.05;59.51;101227.94;18354672;32;20094;-59
2022/12/25 16:57:46;;;;;;;1.02;0.88;;;;;;;12.94;59.88;101214.81;18355108;32;20108;-59
2022/12/25 17:07:49;;;;;;;0.93;0.93;;;;;;;12.81;60.75;101213.94;18354697;32;20158;-59
2022/12/25 17:17:54;;;;;;;0.40;0.40;;;;;;;12.75;60.72;101214.78;18352883;32;20370;-59
2022/12/25 17:27:57;;;;;;;0.50;0.50;;;;;;;12.70;61.08;101213.91;18352752;32;20098;-59
2022/12/25 17:38:02;;;;;;;1.10;0.70;;;;;;;12.56;60.83;101221.75;18355280;32;20108;-60
2022/12/25 17:48:05;;;;;;;0.93;0.85;;;;;;;12.38;61.52;101200.75;18361804;31;20156;-60
2022/12/25 17:58:10;;;;;;;0.50;0.50;;;;;;;12.28;61.71;101189.34;18361615;32;20188;-59
2022/12/25 18:08:13;;;;;;;0.77;0.70;;;;;;;12.16;61.97;101193.69;18361182;32;20149;-60
2022/12/25 18:18:17;;;;;;;0.57;0.57;;;;;;;11.98;62.09;101194.44;18361489;32;20112;-59
2022/12/25 18:28:21;;;;;;;0.80;0.60;;;;;;;11.89;62.91;101210.09;18360467;32;20077;-59
2022/12/25 18:38:25;;;;;;;0.60;0.60;;;;;;;11.75;62.98;101199.56;18360193;32;20660;-59
2022/12/25 18:48:29;;;;;;;0.50;0.50;;;;;;;11.64;62.72;101200.38;18359539;32;20201;-60
2022/12/25 18:58:34;;;;;;;2.80;2.40;;;;;;;11.22;63.79;101176.56;18403984;32;20096;-59
2022/12/25 19:08:37;;;;;;;0.68;0.62;;;;;;;11.16;64.11;101186.09;18423238;32;20109;-60
2022/12/25 19:18:42;;;;;;;3.47;3.15;;;;;;;11.14;63.89;101173.00;18422230;32;20099;-60
2022/12/25 19:28:45;;;;;;;0.70;0.70;;;;;;;11.14;63.38;101164.28;18405556;32;20089;-60
2022/12/25 19:38:50;;;;;;;0.80;0.73;;;;;;;10.95;64.11;101166.75;18404122;32;20085;-60
2022/12/25 19:48:54;;;;;;;1.15;1.12;;;;;;;10.86;64.22;101178.00;18407284;31;20109;-60
2022/12/25 19:58:59;;;;;;;1.15;1.15;;;;;;;10.85;64.51;101159.69;18417286;31;20073;-60
2022/12/25 20:09:05;;;;;;;2.28;1.80;;;;;;;10.88;64.41;101155.37;18387436;32;20128;-60
2022/12/25 20:19:10;;;;;;;1.77;1.65;;;;;;;10.91;64.79;101131.03;18388793;31;20101;-60
2022/12/25 20:29:13;;;;;;;1.20;1.08;;;;;;;10.85;64.88;101113.56;18382064;32;20157;-60
2022/12/25 20:39:18;;;;;;;0.45;0.45;;;;;;;10.94;64.95;101129.31;18378543;32;20105;-60
2022/12/25 20:49:21;;;;;;;0.77;0.77;;;;;;;11.04;65.03;101130.25;18363430;31;20105;-59
2022/12/25 20:59:25;;;;;;;0.70;0.70;;;;;;;10.79;66.54;101129.16;18375873;32;20445;-60
2022/12/25 21:09:35;;;;;;;1.70;1.07;;;;;;;11.05;65.48;101123.28;18381099;32;20237;-60
2022/12/25 21:19:39;;;;;;;1.30;1.20;;;;;;;10.29;68.85;101128.69;18389680;32;20104;-60
2022/12/25 21:29:43;;;;;;;0.52;0.52;;;;;;;11.02;66.41;101120.66;18389840;32;20156;-60
2022/12/25 21:39:48;;;;;;;1.23;1.05;;;;;;;11.10;65.54;101124.22;18403691;32;20182;-60
2022/12/25 22:00:14;;;;;;;2.20;1.62;;;;;;;10.96;66.27;101124.13;18411791;31;20104;-60
2022/12/25 22:10:17;;;;;;;0.50;0.50;;;;;;;11.12;65.64;101143.38;18358694;32;20125;-60
2022/12/25 22:20:24;;;;;;;0.80;0.80;;;;;;;11.12;65.41;101142.50;18367458;32;20675;-59
2022/12/25 22:30:28;;;;;;;2.97;2.28;;;;;;;11.05;65.32;101128.53;18359588;32;20090;-59
2022/12/25 22:40:33;;;;;;;0.70;0.70;;;;;;;11.07;64.98;101129.41;18359936;32;20098;-59
2022/12/25 22:50:36;;;;;;;1.35;1.02;;;;;;;10.85;65.30;101131.84;18360817;31;20478;-59
2022/12/25 23:00:43;;;;;;;4.37;1.35;;;;;;;10.97;64.53;101138.91;18359318;32;20381;-59
2022/12/25 23:10:48;;;;;;;3.62;1.25;;;;;;;10.76;65.12;101123.94;18359064;32;20093;-60
2022/12/25 23:31:13;;;;;;;;;;;;;;;10.93;64.39;101122.34;18358616;32;20093;-59
2022/12/25 23:41:18;;;;;;;2.83;2.10;;;;;;;10.84;64.56;101101.37;18357947;32;19981;-59
2022/12/25 23:51:21;;;;;;;0.77;0.77;;;;;;;10.77;64.64;101110.00;18357103;32;20149;-59
